Create Custom Reports and Graphics: Custom Report

Modesto Jr College

Current Conditions

6/6/20 3:15 PM (-07:00)
Updated Every 15 Minutes
Temp 74.0 °F   5.8
RH 29 %   0
Dew Pt 39.9 °F   5.1
Wind Spd 13.4 mph
Wind Dir WNW | 303 °
Wind Gust 23.4 mph   2.0
Latest Rain 0.00 In
Daily Rain 0.00 In
Daily Min Temp 50.4 °F   8.8
Daily Max Temp 76.2 °F   8.3

Last 24 Hours

Modesto Jr College

15 Minute Data | America/Los_Angeles
as of 6/6/20 3:26 PM PDT
Date & Time Temp (°F) RH (%) Dew Pt (°F) Wind Spd (mph) Wind Dir (°) Wind Gust (mph) Latest Rain (In) Daily Rain (In) Daily Min Temp (°F) Daily Max Temp (°F)
6/6/20 - 1515 74.0 29 39.9 13.4 WNW | 303 23.4 0.00 0.00 50.4 76.2
6/6/20 - 1500 74.6 31 41.9 13.5 WNW | 296 22.4 0.00 0.00 50.4 76.2
6/6/20 - 1445 74.8 31 41.9 11.0 WNW | 292 21.3 0.00 0.00 50.4 76.2
6/6/20 - 1430 74.8 31 42.5 10.8 WNW | 300 19.3 0.00 0.00 50.4 76.2
6/6/20 - 1415 74.9 31 42.5 10.3 WNW | 299 18.6 0.00 0.00 50.4 76.2
6/6/20 - 1400 74.6 33 43.4 9.8 WNW | 300 17.1 0.00 0.00 50.4 76.2
6/6/20 - 1345 74.2 32 42.3 10.1 WNW | 303 16.4 0.00 0.00 50.4 76.2
6/6/20 - 1330 74.3 32 42.3 10.8 WNW | 293 18.2 0.00 0.00 50.4 76.2
6/6/20 - 1315 74.5 32 42.9 11.2 WNW | 294 21.3 0.00 0.00 50.4 76.2
6/6/20 - 1300 74.7 33 43.5 11.8 WNW | 301 20.6 0.00 0.00 50.4 76.2
6/6/20 - 1245 75.2 33 44.2 9.8 WNW | 299 17.5 0.00 0.00 50.4 76.2
6/6/20 - 1230 74.8 34 44.8 9.2 WNW | 302 18.4 0.00 0.00 50.4 75.7
6/6/20 - 1215 74.2 36 45.2 8.1 WNW | 294 16.2 0.00 0.00 50.4 75.4
6/6/20 - 1200 73.4 38 46.3 6.8 NW | 319 15.6 0.00 0.00 50.4 74.3
6/6/20 - 1145 72.5 41 47.4 2.6 N | 349 7.5 0.00 0.00 50.4 73.6
6/6/20 - 1130 72.0 42 47.9 3.4 WSW | 250 12.7 0.00 0.00 50.4 73.6
6/6/20 - 1115 69.9 45 47.3 3.6 NE | 36 7.2 0.00 0.00 50.4 71.2
6/6/20 - 1100 70.1 44 47.2 3.0 N | 0 5.9 0.00 0.00 50.4 71.2
6/6/20 - 1045 69.4 44 46.5 2.9 SSW | 197 7.5 0.00 0.00 50.4 70.5
6/6/20 - 1030 69.4 44 46.6 4.0 SW | 236 8.8 0.00 0.00 50.4 70.5
6/6/20 - 1015 69.0 45 46.6 2.3 S | 178 8.6 0.00 0.00 50.4 70.5
6/6/20 - 1000 66.9 47 46.0 3.6 NW | 312 8.6 0.00 0.00 50.4 68.5
6/6/20 - 0945 65.4 47 44.9 4.7 SSE | 158 11.0 0.00 0.00 50.4 66.2
6/6/20 - 0930 65.6 49 45.7 3.5 NE | 51 7.7 0.00 0.00 50.4 66.2
6/6/20 - 0915 64.6 49 45.2 2.9 SSE | 154 5.7 0.00 0.00 50.4 65.5
6/6/20 - 0900 64.7 51 46.4 2.9 E | 96 7.7 0.00 0.00 50.4 65.5
6/6/20 - 0845 62.7 55 46.4 2.5 ESE | 110 5.7 0.00 0.00 50.4 64.0
6/6/20 - 0830 60.9 59 46.7 2.3 ESE | 112 4.4 0.00 0.00 50.4 61.7
6/6/20 - 0815 59.4 66 48.2 1.8 WNW | 284 5.0 0.00 0.00 50.4 61.1
6/6/20 - 0800 57.4 70 47.8 2.6 WSW | 244 5.7 0.00 0.00 50.4 58.0
6/6/20 - 0745 57.1 71 47.9 1.6 W | 259 3.1 0.00 0.00 50.4 58.0
6/6/20 - 0730 56.6 70 47.1 1.9 SW | 226 3.7 0.00 0.00 50.4 58.0
6/6/20 - 0715 55.6 71 46.2 1.4 SE | 136 3.9 0.00 0.00 50.4 58.0
6/6/20 - 0700 54.7 74 46.6 1.3 SSW | 211 3.9 0.00 0.00 50.4 58.0
6/6/20 - 0645 53.6 77 46.5 1.0 SE | 140 4.2 0.00 0.00 50.4 58.0
6/6/20 - 0630 52.6 78 46.0 1.4 WSW | 257 3.3 0.00 0.00 50.4 58.0
6/6/20 - 0615 52.1 78 45.6 2.0 SSW | 200 4.2 0.00 0.00 50.4 58.0
6/6/20 - 0600 51.7 79 45.4 4.4 WSW | 245 7.9 0.00 0.00 50.4 58.0
6/6/20 - 0545 50.8 81 45.2 2.8 WSW | 237 5.7 0.00 0.00 50.4 58.0
6/6/20 - 0530 50.7 80 44.8 2.2 WSW | 258 5.3 0.00 0.00 50.4 58.0
6/6/20 - 0515 51.0 79 44.6 3.1 SW | 225 5.7 0.00 0.00 50.7 58.0
6/6/20 - 0500 51.7 75 44.2 2.6 SSW | 208 5.3 0.00 0.00 51.2 58.0
6/6/20 - 0445 52.9 69 43.2 3.2 S | 189 5.7 0.00 0.00 52.4 58.0
6/6/20 - 0430 53.5 66 42.3 3.3 SW | 224 5.7 0.00 0.00 52.7 58.0
6/6/20 - 0415 55.4 60 41.6 3.2 W | 274 5.9 0.00 0.00 54.5 58.0
6/6/20 - 0400 56.2 57 41.2 4.4 NW | 326 9.0 0.00 0.00 55.8 58.0
6/6/20 - 0345 56.1 58 41.3 4.9 N | 353 8.1 0.00 0.00 55.8 58.0
6/6/20 - 0330 56.3 56 40.7 4.2 NNW | 340 7.7 0.00 0.00 55.9 58.0
6/6/20 - 0315 56.8 53 39.9 4.1 NNW | 332 7.9 0.00 0.00 55.9 58.0
6/6/20 - 0300 57.2 51 39.0 5.0 NW | 322 8.6 0.00 0.00 55.9 58.0
6/6/20 - 0245 56.5 52 39.4 5.2 NNW | 327 9.4 0.00 0.00 55.9 58.0
6/6/20 - 0230 56.2 54 39.7 2.2 NNW | 333 4.4 0.00 0.00 55.9 58.0
6/6/20 - 0215 56.4 54 40.2 1.2 NNW | 345 3.9 0.00 0.00 56.0 58.0
6/6/20 - 0200 56.8 53 40.0 4.5 NW | 312 8.3 0.00 0.00 56.4 58.0
6/6/20 - 0145 56.6 52 39.2 4.5 NW | 326 6.8 0.00 0.00 56.4 58.0
6/6/20 - 0130 57.4 49 38.4 4.4 NNW | 332 8.3 0.00 0.00 56.6 58.0
6/6/20 - 0115 57.9 46 37.1 6.9 NW | 304 11.8 0.00 0.00 57.7 58.0
6/6/20 - 0100 58.0 44 36.2 6.6 NW | 314 10.5 0.00 0.00 57.6 84.5
6/6/20 - 0045 58.4 41 35.1 6.1 NW | 309 9.9 0.00 0.00 57.6 84.5
6/6/20 - 0030 58.7 41 35.0 6.4 NW | 306 11.0 0.00 0.00 57.6 84.5
6/6/20 - 0015 58.3 42 35.6 5.2 NW | 305 10.5 0.00 0.00 57.6 84.5
6/6/20 - 0000 57.9 48 38.3 3.1 NW | 321 7.7 0.00 0.00 57.6 84.5
6/5/20 - 2345 58.4 51 40.1 2.8 NNW | 343 6.6 0.00 0.00 57.7 84.5
6/5/20 - 2330 58.9 49 39.6 3.2 NNW | 335 7.0 0.00 0.00 58.4 84.5
6/5/20 - 2315 59.0 51 40.9 3.2 NNW | 344 7.9 0.00 0.00 58.4 84.5
6/5/20 - 2300 58.8 54 42.1 3.5 NNW | 333 7.9 0.00 0.00 58.4 84.5
6/5/20 - 2245 59.0 54 42.6 5.2 NNW | 328 9.2 0.00 0.00 58.8 84.5
6/5/20 - 2230 59.2 56 43.4 5.4 NNW | 346 11.2 0.00 0.00 58.8 84.5
6/5/20 - 2215 59.3 58 44.4 5.4 NNW | 342 10.7 0.00 0.00 58.9 84.5
6/5/20 - 2200 59.7 57 44.5 7.8 NNW | 340 13.2 0.00 0.00 59.2 84.5
6/5/20 - 2145 60.2 55 43.8 9.2 NNW | 336 15.8 0.00 0.00 59.2 84.5
6/5/20 - 2130 60.8 52 43.3 9.9 NNW | 343 17.1 0.00 0.00 59.2 84.5
6/5/20 - 2115 61.2 52 43.3 9.3 NNW | 343 15.3 0.00 0.00 59.2 84.5
6/5/20 - 2100 62.2 48 42.4 11.0 NNW | 343 20.4 0.00 0.00 59.2 84.5
6/5/20 - 2045 63.1 44 40.7 10.5 NNW | 336 17.8 0.00 0.00 59.2 84.5
6/5/20 - 2030 64.0 42 40.3 12.0 NW | 326 21.5 0.00 0.00 59.2 84.5
6/5/20 - 2015 65.0 39 39.6 12.7 NW | 326 25.0 0.00 0.00 59.2 84.5
6/5/20 - 2000 66.7 35 38.4 12.1 NW | 324 20.8 0.00 0.00 59.2 84.5
6/5/20 - 1945 68.4 32 37.1 11.4 NW | 320 20.2 0.00 0.00 59.2 84.5
6/5/20 - 1930 69.8 29 36.3 10.9 NW | 317 18.2 0.00 0.00 59.2 84.5
6/5/20 - 1915 70.9 29 36.9 9.4 NW | 310 15.6 0.00 0.00 59.2 84.5
6/5/20 - 1900 71.8 27 36.0 10.2 NW | 308 18.6 0.00 0.00 59.2 84.5
6/5/20 - 1845 72.8 25 35.4 12.5 WNW | 298 23.4 0.00 0.00 59.2 84.5
6/5/20 - 1830 73.9 23 33.6 12.8 WNW | 292 25.2 0.00 0.00 59.2 84.5
6/5/20 - 1815 75.4 22 33.4 12.6 WNW | 290 22.8 0.00 0.00 59.2 84.5
6/5/20 - 1800 76.5 22 34.4 11.9 WNW | 285 25.4 0.00 0.00 59.2 84.5
6/5/20 - 1745 76.2 25 37.6 11.8 WNW | 296 22.4 0.00 0.00 59.2 84.5
6/5/20 - 1730 75.3 28 39.5 13.9 WNW | 295 27.2 0.00 0.00 59.2 84.5
6/5/20 - 1715 76.0 29 41.2 13.9 WNW | 299 25.6 0.00 0.00 59.2 84.5
6/5/20 - 1700 75.6 31 42.6 13.7 WNW | 303 24.6 0.00 0.00 59.2 84.5
6/5/20 - 1645 72.9 33 42.5 12.1 NW | 314 21.9 0.00 0.00 59.2 84.5
6/5/20 - 1630 74.4 32 43.0 12.2 NW | 309 21.9 0.00 0.00 59.2 84.5
6/5/20 - 1615 77.8 30 43.6 12.2 NW | 306 20.2 0.00 0.00 59.2 84.5
6/5/20 - 1600 78.3 31 44.9 12.2 NW | 312 21.7 0.00 0.00 59.2 84.5
6/5/20 - 1545 78.5 31 45.0 12.1 WNW | 302 19.5 0.00 0.00 59.2 84.5
6/5/20 - 1530 79.7 30 45.6 12.0 WNW | 300 20.0 0.00 0.00 59.2 84.5
6/5/20 - 1515 79.9 29 45.1 11.8 NW | 306 21.5 0.00 0.00 59.2 84.5
Max 79.9 81 48.2 13.9 - 27.2 0.00 0.00 59.2 84.5
Avg 64.7 47 42.3 6.8 - 12.8 0.00 - - -
Min 50.7 22 33.4 1.0 - 3.1 0.00 0.00 50.4 58.0
Total - - - - - - 0.00 - - -

Last 7 Days

Modesto Jr College

Daily Data | America/Los_Angeles
as of 6/6/20 3:26 PM PDT
Date Daily ETo (in)
6/5/20 0.251
6/4/20 0.276
6/3/20 0.253
6/2/20 0.233
6/1/20 0.200
5/31/20 0.150
5/30/20 0.156
Max 0.276
Min 0.150